CheckWX is a tool to help pilots better visualize weather data.  It is not intended as a substitute for an official pre-flight weather briefing.

08:54:10 UTC

KTTN TAF
Trenton Mercer Airport
Trenton, New Jersey, USA
KTTN 180520Z 1806/1906 16002KT 5SM BR OVC005 TEMPO 1807/1811 2SM BR FM181300 18004KT 4SM -SHRA BR OVC012 FM181600 20004KT 6SM -SHRA VCTS SCT020CB OVC040 FM190100 VRB04KT P6SM BKN040

Jun-18@
06:00 UTC

Jun-18 @ 06:00 UTC

Jun-18@
13:00 UTC

Jun-18 @ 13:00 UTC

KTTN 180520Z 1806/1906 16002KT 5SM BR OVC005
Wind
  • 160° at 2 KTS
Conditions
Mist
Cloud Levels
  • Overcast at 500' AGL

Jun-18@
07:00 UTC

Jun-18 @ 07:00 UTC

Jun-18@
11:00 UTC

Jun-18 @ 11:00 UTC

TEMPO 1807/1811 2SM BR

Temporary

Temporary Changes expected for less than half the time period

Conditions
Mist

Jun-18@
13:00 UTC

Jun-18 @ 13:00 UTC

Jun-18@
16:00 UTC

Jun-18 @ 16:00 UTC

FM181300 18004KT 4SM -SHRA BR OVC012

From

From Standard forecast or significant change

Wind
  • 180° at 4 KTS
Conditions
Light Rain, Mist
Cloud Levels
  • Overcast at 1,200' AGL

Jun-18@
16:00 UTC

Jun-18 @ 16:00 UTC

Jun-19@
01:00 UTC

Jun-19 @ 01:00 UTC

FM181600 20004KT 6SM -SHRA VCTS SCT020CB OVC040

From

From Standard forecast or significant change

Wind
  • 200° at 4 KTS
Conditions
Light Rain, Area Thunderstorm
Cloud Levels
  • Scattered at 2,000' AGL
  • Overcast at 4,000' AGL

Jun-19@
01:00 UTC

Jun-19 @ 01:00 UTC

Jun-19@
06:00 UTC

Jun-19 @ 06:00 UTC

FM190100 VRB04KT P6SM BKN040

From

From Standard forecast or significant change

Wind
  • Variable at 4 KTS
Cloud Levels
  • Broken at 4,000' AGL